createdAt,value
2022-11-27T00:01:32.079Z,2.48
2022-11-27T00:04:00.279Z,2.48
2022-11-27T00:06:29.929Z,2.47
2022-11-27T00:08:59.818Z,2.47
2022-11-27T00:11:29.821Z,2.47
2022-11-27T00:13:58.680Z,2.45
2022-11-27T00:16:28.021Z,2.45
2022-11-27T00:18:55.923Z,2.47
2022-11-27T00:21:26.807Z,2.50
2022-11-27T00:23:56.165Z,2.53
2022-11-27T00:26:25.078Z,2.56
2022-11-27T00:28:53.552Z,2.60
2022-11-27T00:31:28.574Z,2.66
2022-11-27T00:33:58.427Z,2.72
2022-11-27T00:36:28.006Z,2.77
2022-11-27T00:38:56.100Z,2.83
2022-11-27T00:41:28.699Z,2.88
2022-11-27T00:43:57.389Z,2.91
2022-11-27T00:46:29.300Z,2.93
2022-11-27T00:48:59.436Z,2.96
2022-11-27T00:51:27.966Z,3.01
2022-11-27T00:53:56.465Z,3.00
2022-11-27T00:56:26.633Z,2.92
2022-11-27T00:58:54.960Z,2.93
2022-11-27T01:01:25.844Z,2.83
2022-11-27T01:03:55.342Z,2.66
2022-11-27T01:06:23.999Z,2.66
2022-11-27T01:08:52.110Z,2.65
2022-11-27T01:11:25.779Z,2.64
2022-11-27T01:13:56.837Z,2.63
2022-11-27T01:16:26.799Z,2.60
2022-11-27T01:18:57.833Z,2.53
2022-11-27T01:21:28.204Z,2.54
2022-11-27T01:23:56.447Z,2.56
2022-11-27T01:26:24.952Z,2.55
2022-11-27T01:28:54.744Z,2.53
2022-11-27T01:31:27.788Z,2.51
2022-11-27T01:33:58.885Z,2.48
2022-11-27T01:36:26.605Z,2.46
2022-11-27T01:38:54.426Z,2.44
2022-11-27T01:41:26.027Z,2.42
2022-11-27T01:43:57.256Z,2.39
2022-11-27T01:46:39.365Z,2.37
2022-11-27T01:49:30.778Z,2.36
2022-11-27T01:52:04.041Z,2.37
2022-11-27T01:54:40.840Z,2.39
2022-11-27T01:57:15.388Z,2.45
2022-11-27T01:59:44.165Z,2.52
2022-11-27T02:02:12.316Z,2.57
2022-11-27T02:04:40.557Z,2.64
2022-11-27T02:07:08.486Z,2.68
2022-11-27T02:09:36.373Z,2.74
2022-11-27T02:12:26.247Z,2.81
2022-11-27T02:15:08.060Z,2.87
2022-11-27T02:18:11.743Z,2.88
2022-11-27T02:20:48.996Z,2.89
2022-11-27T02:23:52.728Z,2.93
2022-11-27T02:26:45.275Z,2.94
2022-11-27T02:29:14.676Z,2.78
2022-11-27T02:32:03.920Z,2.65
2022-11-27T02:34:39.387Z,2.55
2022-11-27T02:37:22.558Z,2.43
2022-11-27T02:40:09.230Z,2.38
2022-11-27T02:42:48.121Z,2.37
2022-11-27T02:45:23.194Z,2.28
2022-11-27T02:47:51.124Z,2.22
2022-11-27T02:50:23.631Z,2.16
2022-11-27T02:52:55.370Z,2.18
2022-11-27T02:55:28.579Z,2.19
2022-11-27T02:57:58.756Z,2.19
2022-11-27T03:00:26.697Z,2.16
2022-11-27T03:02:57.659Z,2.10
2022-11-27T03:05:30.334Z,2.10
2022-11-27T03:08:24.441Z,2.10
2022-11-27T03:11:02.729Z,2.10
2022-11-27T03:13:36.125Z,2.11
2022-11-27T03:16:25.365Z,2.12
2022-11-27T03:19:15.570Z,2.15
2022-11-27T03:21:52.593Z,2.20
2022-11-27T03:24:20.438Z,2.23
2022-11-27T03:26:48.630Z,2.29
2022-11-27T03:29:23.392Z,2.33
2022-11-27T03:31:51.893Z,2.36
2022-11-27T03:34:19.709Z,2.42
2022-11-27T03:36:47.547Z,2.49
2022-11-27T03:39:15.757Z,2.55
2022-11-27T03:42:03.404Z,2.58
2022-11-27T03:44:41.779Z,2.64
2022-11-27T03:47:32.100Z,2.67
2022-11-27T03:50:14.890Z,2.69
2022-11-27T03:52:55.328Z,2.72
2022-11-27T03:55:46.748Z,2.75
2022-11-27T03:58:33.440Z,2.76
2022-11-27T04:01:04.504Z,2.76
2022-11-27T04:03:32.460Z,2.72
2022-11-27T04:06:00.265Z,2.72
2022-11-27T04:08:28.362Z,2.66
2022-11-27T04:10:56.105Z,2.55
2022-11-27T04:13:23.892Z,2.50
2022-11-27T04:15:51.705Z,2.45
2022-11-27T04:18:19.552Z,2.42
2022-11-27T04:20:47.391Z,2.39
2022-11-27T04:23:15.124Z,2.37
2022-11-27T04:25:42.893Z,2.34
2022-11-27T04:28:11.130Z,2.31
2022-11-27T04:30:41.180Z,2.27
2022-11-27T04:33:08.922Z,2.23
2022-11-27T04:35:36.665Z,2.19
2022-11-27T04:38:04.433Z,2.14
2022-11-27T04:40:32.144Z,2.08
2022-11-27T04:42:59.898Z,2.06
2022-11-27T04:45:27.685Z,2.05
2022-11-27T04:47:55.446Z,2.04
2022-11-27T04:50:23.266Z,2.02
2022-11-27T04:52:50.983Z,2.02
2022-11-27T04:55:18.765Z,2.01
2022-11-27T04:57:46.712Z,2.04
2022-11-27T05:00:14.937Z,2.09
2022-11-27T05:02:42.797Z,2.13
2022-11-27T05:05:10.676Z,2.19
2022-11-27T05:07:38.556Z,2.25
2022-11-27T05:10:07.234Z,2.29
2022-11-27T05:12:35.109Z,2.33
2022-11-27T05:15:04.631Z,2.39
2022-11-27T05:17:32.697Z,2.44
2022-11-27T05:20:00.750Z,2.50
2022-11-27T05:22:28.565Z,2.56
2022-11-27T05:24:56.255Z,2.59
2022-11-27T05:27:24.085Z,2.62
2022-11-27T05:29:51.819Z,2.65
2022-11-27T05:32:19.653Z,2.69
2022-11-27T05:34:49.751Z,2.62
2022-11-27T05:37:19.738Z,2.56
2022-11-27T05:39:47.854Z,2.53
2022-11-27T05:42:15.579Z,2.48
2022-11-27T05:44:43.523Z,2.43
2022-11-27T05:47:11.293Z,2.39
2022-11-27T05:49:39.215Z,2.36
2022-11-27T05:52:07.141Z,2.34
2022-11-27T05:54:34.918Z,2.33
2022-11-27T05:57:02.599Z,2.33
2022-11-27T05:59:30.296Z,2.31
2022-11-27T06:02:00.595Z,2.28
2022-11-27T06:04:28.323Z,2.26
2022-11-27T06:06:56.009Z,2.25
2022-11-27T06:09:23.654Z,2.24
2022-11-27T06:11:51.518Z,2.24
2022-11-27T06:14:19.306Z,2.23
2022-11-27T06:16:47.079Z,2.22
2022-11-27T06:19:14.973Z,2.22
2022-11-27T06:21:43.206Z,2.22
2022-11-27T06:24:10.971Z,2.24
2022-11-27T06:26:38.892Z,2.27
2022-11-27T06:29:06.612Z,2.31
2022-11-27T06:31:34.427Z,2.35
2022-11-27T06:34:04.050Z,2.40
2022-11-27T06:36:35.122Z,2.47
2022-11-27T06:39:05.600Z,2.52
2022-11-27T06:41:33.512Z,2.59
2022-11-27T06:44:01.660Z,2.66
2022-11-27T06:46:30.286Z,2.76
2022-11-27T06:48:59.292Z,2.83
2022-11-27T06:51:29.848Z,2.84
2022-11-27T06:54:00.430Z,2.86
2022-11-27T06:56:30.416Z,2.88
2022-11-27T06:59:00.108Z,2.88
2022-11-27T07:01:29.653Z,2.88
2022-11-27T07:03:58.065Z,2.90
2022-11-27T07:06:28.381Z,2.90
2022-11-27T07:08:56.538Z,2.90
2022-11-27T07:11:27.071Z,2.88
2022-11-27T07:13:57.318Z,2.90
2022-11-27T07:16:27.377Z,2.93
2022-11-27T07:19:02.858Z,2.97
2022-11-27T07:21:31.334Z,3.03
2022-11-27T07:24:00.534Z,3.08
2022-11-27T07:26:29.845Z,3.12
2022-11-27T07:28:58.042Z,3.14
2022-11-27T07:31:28.901Z,3.17
2022-11-27T07:33:57.265Z,3.19
2022-11-27T07:36:28.573Z,3.23
2022-11-27T07:38:57.918Z,3.25
2022-11-27T07:41:30.549Z,3.23
2022-11-27T07:44:01.911Z,3.24
2022-11-27T07:46:30.430Z,3.28
2022-11-27T07:49:00.270Z,3.32
2022-11-27T07:51:28.919Z,3.35
2022-11-27T07:53:56.949Z,3.31
2022-11-27T07:56:24.711Z,3.39
2022-11-27T07:58:52.528Z,3.42
2022-11-27T08:01:21.435Z,3.47
2022-11-27T08:03:49.345Z,3.52
2022-11-27T08:06:20.823Z,3.62
2022-11-27T08:08:49.388Z,3.72
2022-11-27T08:11:24.715Z,3.82
2022-11-27T08:13:57.229Z,3.87
2022-11-27T08:16:25.245Z,3.98
2022-11-27T08:18:53.092Z,4.06
2022-11-27T08:21:20.939Z,4.22
2022-11-27T08:23:48.908Z,4.35
2022-11-27T08:26:16.743Z,4.49
2022-11-27T08:28:44.811Z,4.59
2022-11-27T08:31:14.771Z,4.68
2022-11-27T08:33:42.586Z,4.71
2022-11-27T08:36:16.378Z,4.72
2022-11-27T08:38:46.912Z,4.68
2022-11-27T08:41:16.202Z,4.68
2022-11-27T08:43:43.924Z,4.67
2022-11-27T08:46:12.413Z,4.69
2022-11-27T08:48:41.063Z,4.72
2022-11-27T08:51:11.351Z,4.78
2022-11-27T08:53:39.552Z,4.84
2022-11-27T08:56:10.252Z,4.90
2022-11-27T08:58:38.227Z,4.91
2022-11-27T09:01:10.004Z,4.90
2022-11-27T09:03:38.089Z,4.92
2022-11-27T09:06:08.009Z,4.97
2022-11-27T09:08:35.767Z,4.97
2022-11-27T09:11:04.635Z,4.98
2022-11-27T09:13:32.839Z,4.99
2022-11-27T09:16:00.698Z,5.00
2022-11-27T09:18:28.384Z,4.84
2022-11-27T09:21:00.039Z,4.82
2022-11-27T09:23:29.226Z,4.88
2022-11-27T09:26:00.260Z,4.92
2022-11-27T09:28:31.504Z,4.98
2022-11-27T09:31:01.935Z,5.05
2022-11-27T09:33:31.763Z,5.11
2022-11-27T09:36:04.792Z,5.24
2022-11-27T09:38:32.886Z,5.35
2022-11-27T09:41:15.535Z,5.39
2022-11-27T09:43:51.655Z,5.38
2022-11-27T09:46:29.464Z,5.35
2022-11-27T09:49:00.867Z,5.29
2022-11-27T09:51:34.469Z,5.41
2022-11-27T09:54:13.065Z,5.54
2022-11-27T09:56:42.838Z,5.64
2022-11-27T09:59:18.143Z,5.77
2022-11-27T10:01:50.866Z,5.75
2022-11-27T10:04:20.941Z,5.81
2022-11-27T10:07:12.313Z,6.00
2022-11-27T10:10:01.851Z,6.19
2022-11-27T10:12:53.331Z,6.42
2022-11-27T10:15:53.246Z,6.60
2022-11-27T10:18:40.320Z,6.50
2022-11-27T10:21:23.621Z,6.53
2022-11-27T10:23:59.710Z,6.52
2022-11-27T10:26:36.561Z,6.52
2022-11-27T10:29:47.045Z,6.56
2022-11-27T10:32:53.671Z,6.67
2022-11-27T10:35:22.388Z,6.75
2022-11-27T10:38:02.253Z,6.78
2022-11-27T10:40:49.910Z,6.94
2022-11-27T10:43:20.533Z,7.10
2022-11-27T10:45:56.369Z,7.30
2022-11-27T10:48:24.616Z,7.47
2022-11-27T10:50:52.264Z,7.55
2022-11-27T10:53:32.740Z,7.70
2022-11-27T10:56:36.173Z,7.85
2022-11-27T10:59:10.693Z,7.97
2022-11-27T11:01:47.296Z,8.06
2022-11-27T11:04:37.472Z,8.12
2022-11-27T11:07:24.946Z,8.47
2022-11-27T11:09:54.465Z,8.89
2022-11-27T11:12:23.926Z,9.15
2022-11-27T11:14:56.883Z,9.55
2022-11-27T11:17:28.149Z,9.79
2022-11-27T11:19:56.022Z,9.76
2022-11-27T11:22:24.606Z,9.68
2022-11-27T11:24:54.211Z,9.52
2022-11-27T11:27:29.642Z,9.85
2022-11-27T11:30:01.578Z,10.18
2022-11-27T11:32:33.311Z,10.38
2022-11-27T11:35:08.646Z,10.88
2022-11-27T11:37:41.212Z,11.30
2022-11-27T11:40:30.582Z,11.54
2022-11-27T11:43:02.681Z,11.69
2022-11-27T11:45:34.750Z,11.41
2022-11-27T11:48:22.552Z,10.52
2022-11-27T11:50:58.833Z,10.77
2022-11-27T11:53:40.927Z,11.41
2022-11-27T11:56:27.998Z,12.02
2022-11-27T11:59:18.580Z,11.77
2022-11-27T12:02:18.511Z,11.34
2022-11-27T12:05:06.179Z,11.85
2022-11-27T12:08:13.288Z,12.02
2022-11-27T12:11:14.936Z,11.51
2022-11-27T12:14:14.256Z,11.31
2022-11-27T12:17:23.045Z,11.28
2022-11-27T12:20:05.471Z,10.99
2022-11-27T12:22:57.084Z,10.97
2022-11-27T12:25:34.367Z,11.07
2022-11-27T12:28:21.266Z,10.86
2022-11-27T12:31:11.583Z,10.68
2022-11-27T12:33:58.734Z,10.43
2022-11-27T12:37:01.840Z,10.33
2022-11-27T12:39:52.694Z,9.90
2022-11-27T12:42:36.200Z,9.64
2022-11-27T12:45:18.693Z,9.34
2022-11-27T12:47:58.394Z,9.27
2022-11-27T12:50:40.111Z,9.26
2022-11-27T12:53:44.416Z,9.16
2022-11-27T12:56:21.117Z,9.07
2022-11-27T12:58:58.255Z,9.01
2022-11-27T13:01:37.736Z,8.92
2022-11-27T13:04:21.906Z,8.87
2022-11-27T13:07:01.399Z,8.58
2022-11-27T13:09:42.840Z,8.20
2022-11-27T13:12:18.544Z,8.20
2022-11-27T13:14:55.166Z,8.17
2022-11-27T13:17:34.384Z,8.00
2022-11-27T13:20:03.689Z,7.83
2022-11-27T13:22:36.088Z,7.58
2022-11-27T13:25:04.760Z,7.56
2022-11-27T13:27:36.916Z,7.51
2022-11-27T13:30:08.555Z,7.53
2022-11-27T13:32:42.225Z,7.50
2022-11-27T13:35:27.806Z,7.38
2022-11-27T13:38:08.258Z,7.10
2022-11-27T13:40:42.148Z,7.06
2022-11-27T13:43:29.053Z,7.08
2022-11-27T13:46:08.313Z,7.10
2022-11-27T13:48:41.397Z,7.08
2022-11-27T13:51:11.562Z,7.03
2022-11-27T13:53:42.300Z,7.01
2022-11-27T13:56:17.724Z,6.98
2022-11-27T13:58:49.047Z,6.94
2022-11-27T14:01:21.729Z,6.88
2022-11-27T14:03:49.853Z,6.79
2022-11-27T14:06:30.379Z,6.71
2022-11-27T14:09:01.994Z,6.67
2022-11-27T14:11:41.467Z,6.61
2022-11-27T14:14:17.925Z,6.52
2022-11-27T14:16:57.649Z,6.43
2022-11-27T14:19:34.473Z,6.37
2022-11-27T14:22:15.859Z,6.33
2022-11-27T14:24:45.920Z,6.29
2022-11-27T14:27:20.040Z,6.24
2022-11-27T14:29:48.739Z,6.19
2022-11-27T14:32:19.274Z,6.14
2022-11-27T14:34:48.755Z,6.10
2022-11-27T14:37:24.340Z,6.03
2022-11-27T14:39:53.160Z,5.97
2022-11-27T14:42:28.465Z,5.92
2022-11-27T14:45:06.363Z,5.89
2022-11-27T14:47:35.480Z,5.86
2022-11-27T14:50:04.137Z,5.83
2022-11-27T14:52:32.090Z,5.81
2022-11-27T14:55:01.265Z,5.78
2022-11-27T14:57:30.889Z,5.75
2022-11-27T15:00:05.300Z,5.73
2022-11-27T15:02:33.301Z,5.70
2022-11-27T15:05:04.858Z,5.67
2022-11-27T15:07:44.146Z,5.64
2022-11-27T15:10:24.321Z,5.58
2022-11-27T15:12:52.909Z,5.54
2022-11-27T15:15:25.697Z,5.50
2022-11-27T15:17:58.347Z,5.47
2022-11-27T15:20:34.819Z,5.44
2022-11-27T15:23:03.327Z,5.40
2022-11-27T15:25:39.000Z,5.36
2022-11-27T15:28:27.293Z,5.32
2022-11-27T15:30:57.048Z,5.29
2022-11-27T15:33:32.580Z,5.27
2022-11-27T15:36:16.276Z,5.25
2022-11-27T15:38:45.732Z,5.23
2022-11-27T15:41:30.874Z,5.21
2022-11-27T15:43:58.839Z,5.19
2022-11-27T15:46:30.633Z,5.18
2022-11-27T15:48:58.694Z,5.17
2022-11-27T15:51:26.493Z,5.16
2022-11-27T15:53:54.298Z,5.14
2022-11-27T15:56:22.479Z,5.10
2022-11-27T15:58:50.202Z,5.05
2022-11-27T16:01:17.976Z,5.02
2022-11-27T16:03:45.823Z,4.99
2022-11-27T16:06:13.942Z,4.96
2022-11-27T16:08:41.919Z,4.93
2022-11-27T16:11:14.256Z,4.92
2022-11-27T16:13:41.927Z,4.91
2022-11-27T16:16:10.384Z,4.90
2022-11-27T16:18:38.215Z,4.89
2022-11-27T16:21:08.604Z,4.88
2022-11-27T16:23:37.830Z,4.86
2022-11-27T16:26:06.100Z,4.84
2022-11-27T16:28:34.428Z,4.82
2022-11-27T16:31:06.684Z,4.79
2022-11-27T16:33:34.888Z,4.79
2022-11-27T16:36:08.977Z,4.79
2022-11-27T16:38:37.593Z,4.76
2022-11-27T16:41:10.582Z,4.74
2022-11-27T16:43:42.555Z,4.73
2022-11-27T16:46:13.836Z,4.71
2022-11-27T16:48:43.400Z,4.72
2022-11-27T16:51:17.179Z,4.73
2022-11-27T16:53:48.253Z,4.75
2022-11-27T16:56:18.333Z,4.78
2022-11-27T16:58:47.310Z,4.82
2022-11-27T17:01:18.324Z,4.83
2022-11-27T17:03:46.175Z,4.86
2022-11-27T17:06:17.553Z,4.87
2022-11-27T17:08:45.855Z,4.92
2022-11-27T17:11:20.235Z,4.97
2022-11-27T17:13:49.487Z,5.03
2022-11-27T17:16:18.829Z,5.03
2022-11-27T17:18:47.596Z,5.02
2022-11-27T17:21:19.126Z,4.97
2022-11-27T17:23:47.345Z,4.94
2022-11-27T17:26:19.118Z,4.92
2022-11-27T17:28:47.541Z,4.89
2022-11-27T17:31:20.615Z,4.86
2022-11-27T17:33:48.840Z,4.81
2022-11-27T17:36:19.465Z,4.75
2022-11-27T17:38:47.821Z,4.70
2022-11-27T17:41:15.605Z,4.62
2022-11-27T17:43:46.774Z,4.57
2022-11-27T17:46:27.239Z,4.51
2022-11-27T17:48:58.963Z,4.47
2022-11-27T17:51:30.083Z,4.44
2022-11-27T17:54:01.838Z,4.40
2022-11-27T17:56:33.819Z,4.35
2022-11-27T17:59:02.175Z,4.32
2022-11-27T18:01:31.032Z,4.30
2022-11-27T18:04:01.108Z,4.27
2022-11-27T18:06:31.619Z,4.23
2022-11-27T18:09:00.266Z,4.20
2022-11-27T18:11:31.562Z,4.14
2022-11-27T18:14:00.791Z,4.08
2022-11-27T18:16:34.777Z,4.04
2022-11-27T18:19:07.547Z,4.04
2022-11-27T18:21:36.456Z,4.05
2022-11-27T18:27:10.330Z,4.08
2022-11-27T18:29:42.808Z,4.11
2022-11-27T18:32:12.709Z,4.15
2022-11-27T18:34:41.496Z,4.18
2022-11-27T18:37:10.215Z,4.24
2022-11-27T18:39:39.702Z,4.30
2022-11-27T18:42:07.998Z,4.36
2022-11-27T18:44:44.301Z,4.41
2022-11-27T18:47:15.584Z,4.47
2022-11-27T18:49:47.587Z,4.50
2022-11-27T18:52:15.750Z,4.49
2022-11-27T18:54:44.299Z,4.51
2022-11-27T18:57:13.225Z,4.50
2022-11-27T18:59:43.830Z,4.48
2022-11-27T19:02:13.424Z,4.44
2022-11-27T19:04:44.354Z,4.40
2022-11-27T19:07:12.663Z,4.38
2022-11-27T19:09:40.903Z,4.34
2022-11-27T19:12:09.096Z,4.31
2022-11-27T19:14:36.983Z,4.29
2022-11-27T19:17:05.535Z,4.26
2022-11-27T19:19:54.426Z,4.20
2022-11-27T19:22:22.404Z,4.14
2022-11-27T19:24:50.262Z,4.08
2022-11-27T19:27:19.069Z,4.02
2022-11-27T19:29:47.132Z,3.98
2022-11-27T19:32:15.022Z,3.95
2022-11-27T19:34:43.472Z,3.92
2022-11-27T19:37:11.415Z,3.90
2022-11-27T19:39:39.503Z,3.87
2022-11-27T19:42:07.248Z,3.84
2022-11-27T19:44:35.836Z,3.80
2022-11-27T19:47:03.903Z,3.75
2022-11-27T19:49:31.715Z,3.72
2022-11-27T19:52:00.017Z,3.69
2022-11-27T19:54:28.697Z,3.65
2022-11-27T19:56:57.453Z,3.64
2022-11-27T19:59:26.305Z,3.64
2022-11-27T20:01:55.556Z,3.65
2022-11-27T20:04:26.793Z,3.66
2022-11-27T20:06:54.559Z,3.68
2022-11-27T20:09:22.326Z,3.70
2022-11-27T20:11:50.178Z,3.75
2022-11-27T20:14:19.368Z,3.80
2022-11-27T20:16:47.570Z,3.84
2022-11-27T20:19:16.015Z,3.88
2022-11-27T20:21:45.219Z,3.92
2022-11-27T20:24:14.610Z,3.92
2022-11-27T20:26:43.196Z,3.95
2022-11-27T20:29:13.015Z,3.96
2022-11-27T20:31:42.168Z,3.98
2022-11-27T20:34:17.548Z,3.97
2022-11-27T20:36:45.818Z,3.95
2022-11-27T20:39:20.568Z,3.93
2022-11-27T20:41:50.088Z,3.90
2022-11-27T20:44:18.369Z,3.87
2022-11-27T20:46:47.050Z,3.83
2022-11-27T20:49:16.268Z,3.78
2022-11-27T20:51:44.556Z,3.74
2022-11-27T20:54:14.062Z,3.69
2022-11-27T20:56:44.801Z,3.65
2022-11-27T20:59:13.368Z,3.63
2022-11-27T21:01:41.914Z,3.59
2022-11-27T21:04:19.940Z,3.58
2022-11-27T21:06:48.175Z,3.55
2022-11-27T21:09:16.958Z,3.52
2022-11-27T21:11:46.159Z,3.51
2022-11-27T21:14:15.804Z,3.51
2022-11-27T21:16:48.403Z,3.49
2022-11-27T21:19:20.894Z,3.46
2022-11-27T21:21:51.220Z,3.43
2022-11-27T21:24:20.141Z,3.42
2022-11-27T21:26:50.162Z,3.39
2022-11-27T21:29:18.551Z,3.38
2022-11-27T21:31:48.034Z,3.37
2022-11-27T21:34:16.352Z,3.36
2022-11-27T21:36:45.309Z,3.35
2022-11-27T21:39:20.406Z,3.34
2022-11-27T21:41:50.829Z,3.34
2022-11-27T21:44:20.412Z,3.35
2022-11-27T21:46:50.037Z,3.38
2022-11-27T21:49:20.405Z,3.41
2022-11-27T21:51:53.456Z,3.44
2022-11-27T21:54:28.622Z,3.48
2022-11-27T21:56:58.177Z,3.50
2022-11-27T21:59:26.143Z,3.50
2022-11-27T22:01:57.033Z,3.52
2022-11-27T22:04:24.961Z,3.56
2022-11-27T22:06:52.727Z,3.62
2022-11-27T22:09:20.454Z,3.67
2022-11-27T22:11:48.299Z,3.71
2022-11-27T22:14:16.744Z,3.73
2022-11-27T22:16:46.715Z,3.72
2022-11-27T22:19:16.573Z,3.68
2022-11-27T22:21:45.119Z,3.64
2022-11-27T22:24:18.347Z,3.60
2022-11-27T22:26:48.877Z,3.55
2022-11-27T22:29:16.961Z,3.51
2022-11-27T22:31:45.050Z,3.44
2022-11-27T22:34:13.470Z,3.40
2022-11-27T22:36:41.728Z,3.35
2022-11-27T22:39:10.513Z,3.31
2022-11-27T22:41:40.007Z,3.29
2022-11-27T22:44:11.633Z,3.24
2022-11-27T22:46:43.480Z,3.21
2022-11-27T22:49:13.825Z,3.19
2022-11-27T22:51:42.164Z,3.16
2022-11-27T22:54:14.912Z,3.15
2022-11-27T22:56:45.280Z,3.13
2022-11-27T22:59:33.783Z,3.11
2022-11-27T23:02:05.890Z,3.07
2022-11-27T23:04:35.878Z,3.04
2022-11-27T23:07:05.452Z,3.01
2022-11-27T23:09:33.790Z,2.99
2022-11-27T23:12:02.463Z,2.99
2022-11-27T23:14:30.161Z,3.00
2022-11-27T23:16:58.791Z,3.00
2022-11-27T23:19:26.600Z,2.99
2022-11-27T23:21:54.333Z,3.03
2022-11-27T23:24:21.978Z,3.08
2022-11-27T23:26:49.848Z,3.15
2022-11-27T23:29:17.723Z,3.22
2022-11-27T23:31:45.683Z,3.27
2022-11-27T23:34:15.871Z,3.30
2022-11-27T23:36:43.940Z,3.32
2022-11-27T23:39:14.582Z,3.33
2022-11-27T23:41:42.956Z,3.31
2022-11-27T23:44:15.984Z,3.30
2022-11-27T23:46:43.770Z,3.31
2022-11-27T23:49:11.463Z,3.28
2022-11-27T23:51:39.139Z,3.21
2022-11-27T23:54:09.394Z,3.13
2022-11-27T23:56:39.088Z,3.15
2022-11-27T23:59:07.060Z,3.12
